Time;durP1;ratioP1;P1;durP2;ratioP2;P2;SDS_P1;SDS_P2;PMS_P1;PMS_P2;Temp;Humidity;BMP_temperature;BMP_pressure;BME280_temperature;BME280_humidity;BME280_pressure;Samples;Min_cycle;Max_cycle;Signal;HPM_P1;HPM_P2
2023/04/19 00:02:09;;;;;;;1999.90;999.90;;;9.80;99.90;;;;;;5089773;28;21070;-76
2023/04/19 00:04:37;;;;;;;1999.90;999.90;;;9.70;99.90;;;;;;5087972;28;20825;-76
2023/04/19 00:07:04;;;;;;;1999.90;999.90;;;9.60;99.90;;;;;;5078472;28;21037;-76
2023/04/19 00:09:31;;;;;;;1999.90;999.90;;;9.50;99.90;;;;;;5086519;28;20893;-77
2023/04/19 00:11:57;;;;;;;1999.90;999.90;;;9.50;99.90;;;;;;5085644;28;20437;-76
2023/04/19 00:14:24;;;;;;;1999.90;999.90;;;9.40;99.90;;;;;;5088711;28;20432;-76
2023/04/19 00:16:51;;;;;;;1999.90;999.90;;;9.40;99.90;;;;;;5083208;28;20894;-76
2023/04/19 00:19:17;;;;;;;1999.90;999.90;;;9.40;99.90;;;;;;5083783;28;20425;-74
2023/04/19 00:21:45;;;;;;;1999.90;999.90;;;9.50;99.90;;;;;;5083633;28;20467;-76
2023/04/19 00:24:12;;;;;;;1999.90;999.90;;;9.40;99.90;;;;;;5087248;28;20561;-77
2023/04/19 00:26:39;;;;;;;1999.90;999.90;;;9.40;99.90;;;;;;5081886;28;20456;-76
2023/04/19 00:29:05;;;;;;;1999.90;999.90;;;9.30;99.90;;;;;;5091008;28;20426;-76
2023/04/19 00:31:32;;;;;;;1999.90;999.90;;;9.20;99.90;;;;;;5079329;28;21132;-76
2023/04/19 00:33:58;;;;;;;1999.90;999.90;;;9.20;99.90;;;;;;5084652;28;20430;-76
2023/04/19 00:36:26;;;;;;;1999.90;999.90;;;9.10;99.90;;;;;;5080552;28;20430;-76
2023/04/19 00:38:54;;;;;;;1999.90;999.90;;;9.10;99.90;;;;;;5089436;28;20512;-76
2023/04/19 00:41:20;;;;;;;1999.90;999.90;;;9.10;99.90;;;;;;5084612;28;20850;-74
2023/04/19 00:43:47;;;;;;;1999.90;999.90;;;9.00;99.90;;;;;;5090416;28;20430;-76
2023/04/19 00:46:14;;;;;;;1999.90;999.90;;;8.70;99.90;;;;;;5084061;28;20433;-77
2023/04/19 00:48:41;;;;;;;1999.90;999.90;;;8.50;99.90;;;;;;5090177;28;20449;-74
2023/04/19 00:51:09;;;;;;;1999.90;999.90;;;8.40;99.90;;;;;;5084479;28;20426;-74
2023/04/19 00:53:36;;;;;;;1999.90;999.90;;;8.20;99.90;;;;;;5089389;28;20450;-77
2023/04/19 00:56:06;;;;;;;1999.90;999.90;;;8.10;99.90;;;;;;5085633;28;20435;-75
2023/04/19 00:58:33;;;;;;;1999.90;999.90;;;8.10;99.90;;;;;;5081178;28;20838;-77
2023/04/19 01:01:00;;;;;;;1999.90;999.90;;;7.80;99.90;;;;;;5084032;28;20655;-78
2023/04/19 01:03:27;;;;;;;1999.90;999.90;;;7.80;99.90;;;;;;5089804;28;20488;-77
2023/04/19 01:05:55;;;;;;;1999.90;999.90;;;7.70;99.90;;;;;;5086811;28;20428;-79
2023/04/19 01:08:22;;;;;;;1999.90;999.90;;;7.70;99.90;;;;;;5091269;28;20426;-76
2023/04/19 01:10:48;;;;;;;1999.90;999.90;;;7.40;99.90;;;;;;5080917;28;20430;-76
2023/04/19 01:13:17;;;;;;;1999.90;999.90;;;7.40;99.90;;;;;;5085900;28;20433;-76
2023/04/19 01:15:44;;;;;;;1999.90;999.90;;;7.30;99.90;;;;;;5085809;28;20425;-77
2023/04/19 01:18:11;;;;;;;1999.90;999.90;;;7.40;99.90;;;;;;5089323;28;20499;-75
2023/04/19 01:20:37;;;;;;;1999.90;999.90;;;7.40;99.90;;;;;;5085352;28;20487;-79
2023/04/19 01:23:05;;;;;;;1999.90;999.90;;;7.40;99.90;;;;;;5091631;28;20483;-75
2023/04/19 01:25:32;;;;;;;1999.90;999.90;;;7.40;99.90;;;;;;5082993;28;20453;-75
2023/04/19 01:27:59;;;;;;;1999.90;999.90;;;7.50;99.90;;;;;;5090404;28;20434;-76
2023/04/19 01:30:26;;;;;;;1999.90;999.90;;;7.50;99.90;;;;;;5084959;28;20448;-77
2023/04/19 01:32:52;;;;;;;1999.90;999.90;;;7.50;99.90;;;;;;5079706;28;20424;-77
2023/04/19 01:35:20;;;;;;;1999.90;999.90;;;7.40;99.90;;;;;;5086386;28;20496;-75
2023/04/19 01:37:47;;;;;;;1999.90;999.90;;;7.40;99.90;;;;;;5083412;28;20475;-76
2023/04/19 01:40:15;;;;;;;1999.90;999.90;;;7.60;99.90;;;;;;5076078;28;20431;-76
2023/04/19 01:42:42;;;;;;;1999.90;999.90;;;7.50;99.90;;;;;;5081169;28;20431;-76
2023/04/19 01:45:10;;;;;;;1999.90;999.90;;;7.50;99.90;;;;;;5086224;28;20781;-78
2023/04/19 01:47:37;;;;;;;1999.90;999.90;;;7.50;99.90;;;;;;5087044;28;20943;-77
2023/04/19 01:50:04;;;;;;;1999.90;999.90;;;7.40;99.90;;;;;;5089545;28;20460;-77
2023/04/19 01:52:30;;;;;;;1999.90;999.90;;;7.40;99.90;;;;;;5080602;28;20435;-75
2023/04/19 01:54:57;;;;;;;1999.90;999.90;;;7.40;99.90;;;;;;5073994;28;20424;-76
2023/04/19 01:57:25;;;;;;;1999.90;999.90;;;7.40;99.90;;;;;;5086931;28;20437;-77
2023/04/19 01:59:52;;;;;;;1999.90;999.90;;;7.40;99.90;;;;;;5088733;28;20430;-80
2023/04/19 02:02:19;;;;;;;1999.90;999.90;;;7.30;99.90;;;;;;5086784;28;20499;-76
2023/04/19 02:04:46;;;;;;;1999.90;999.90;;;7.30;99.90;;;;;;5079305;28;20443;-77
2023/04/19 02:07:12;;;;;;;1999.90;999.90;;;7.30;99.90;;;;;;5086771;28;20431;-80
2023/04/19 02:09:39;;;;;;;1999.90;999.90;;;7.20;99.90;;;;;;5078255;28;20427;-74
2023/04/19 02:12:06;;;;;;;1999.90;999.90;;;7.10;99.90;;;;;;5079000;28;20438;-76
2023/04/19 02:14:35;;;;;;;1999.90;999.90;;;7.10;99.90;;;;;;5088403;28;20425;-76
2023/04/19 02:17:02;;;;;;;1999.90;999.90;;;7.10;99.90;;;;;;5088153;28;20984;-76
2023/04/19 02:19:29;;;;;;;1999.90;999.90;;;7.10;99.90;;;;;;5088581;28;20488;-78
2023/04/19 02:21:56;;;;;;;1999.90;999.90;;;7.10;99.90;;;;;;5083125;28;20448;-75
2023/04/19 02:24:24;;;;;;;1999.90;999.90;;;7.20;99.90;;;;;;5087069;28;20497;-76
2023/04/19 02:26:50;;;;;;;1999.90;999.90;;;7.10;99.90;;;;;;5083325;28;20489;-76
2023/04/19 02:29:17;;;;;;;1999.90;999.90;;;7.10;99.90;;;;;;5084655;28;20461;-76
2023/04/19 02:31:46;;;;;;;1999.90;999.90;;;7.10;99.90;;;;;;5086134;28;20780;-76
2023/04/19 02:34:12;;;;;;;1999.90;999.90;;;7.10;99.90;;;;;;5074511;28;20915;-76
2023/04/19 02:36:39;;;;;;;1999.90;999.90;;;7.20;99.90;;;;;;5088758;28;21008;-76
2023/04/19 02:39:05;;;;;;;1999.90;999.90;;;7.20;99.90;;;;;;5082395;28;21147;-76
2023/04/19 02:41:32;;;;;;;1999.90;999.90;;;7.30;99.90;;;;;;5086788;28;20417;-76
2023/04/19 02:43:59;;;;;;;1999.90;999.90;;;7.20;99.90;;;;;;5085197;28;20923;-75
2023/04/19 02:46:25;;;;;;;1999.90;999.90;;;7.20;99.90;;;;;;5087583;28;20430;-76
2023/04/19 02:48:53;;;;;;;1999.90;999.90;;;7.20;99.90;;;;;;5083605;28;20434;-76
2023/04/19 02:51:20;;;;;;;1999.90;999.90;;;6.80;99.90;;;;;;5073709;28;20514;-76
2023/04/19 02:53:47;;;;;;;1999.90;999.90;;;7.10;99.90;;;;;;5080024;28;20427;-78
2023/04/19 02:56:14;;;;;;;1999.90;999.90;;;7.20;99.90;;;;;;5085744;28;20426;-76
2023/04/19 02:58:41;;;;;;;1999.90;999.90;;;7.20;99.90;;;;;;5086244;28;20437;-75
2023/04/19 03:01:07;;;;;;;1999.90;999.90;;;7.10;99.90;;;;;;5088393;28;20441;-76
2023/04/19 03:03:34;;;;;;;1999.90;999.90;;;7.20;99.90;;;;;;5084423;28;20790;-76
2023/04/19 03:06:02;;;;;;;1999.90;999.90;;;7.20;99.90;;;;;;5077688;28;20427;-76
2023/04/19 03:08:29;;;;;;;1999.90;999.90;;;7.10;99.90;;;;;;5081452;28;20785;-76
2023/04/19 03:10:55;;;;;;;1999.90;999.90;;;7.00;99.90;;;;;;5086331;28;20493;-76
2023/04/19 03:13:22;;;;;;;1999.90;999.90;;;6.80;99.90;;;;;;5084199;28;20431;-76
2023/04/19 03:15:49;;;;;;;1999.90;999.90;;;7.00;99.90;;;;;;5085729;28;20491;-76
2023/04/19 03:18:16;;;;;;;1999.90;999.90;;;6.90;99.90;;;;;;5080122;28;20426;-76
2023/04/19 03:20:43;;;;;;;1999.90;999.90;;;7.00;99.90;;;;;;5088449;28;20434;-77
2023/04/19 03:23:11;;;;;;;1999.90;999.90;;;6.70;99.90;;;;;;5088275;28;20850;-77
2023/04/19 03:25:38;;;;;;;1999.90;999.90;;;6.70;99.90;;;;;;5090112;28;20429;-74
2023/04/19 03:28:04;;;;;;;1999.90;999.90;;;6.40;99.90;;;;;;5086241;28;22359;-77
2023/04/19 03:30:31;;;;;;;1999.90;999.90;;;6.30;99.90;;;;;;5083685;28;20430;-77
2023/04/19 03:32:58;;;;;;;1999.90;999.90;;;6.40;99.90;;;;;;5092016;28;20421;-75
2023/04/19 03:35:25;;;;;;;1999.90;999.90;;;6.50;99.90;;;;;;5085649;28;20434;-75
2023/04/19 03:37:52;;;;;;;1999.90;999.90;;;6.60;99.90;;;;;;5084822;28;20515;-74
2023/04/19 03:40:20;;;;;;;1999.90;999.90;;;6.70;99.90;;;;;;5089797;28;20487;-74
2023/04/19 03:42:47;;;;;;;1999.90;999.90;;;6.90;99.90;;;;;;5082777;28;20485;-73
2023/04/19 03:45:14;;;;;;;1999.90;999.90;;;6.80;99.90;;;;;;5088821;28;20426;-77
2023/04/19 03:47:40;;;;;;;1999.90;999.90;;;6.70;99.90;;;;;;5084697;28;20433;-77
2023/04/19 03:50:08;;;;;;;1999.90;999.90;;;6.70;99.90;;;;;;5089395;28;20462;-77
2023/04/19 03:52:35;;;;;;;1999.90;999.90;;;6.70;99.90;;;;;;5086579;28;20491;-77
2023/04/19 03:55:01;;;;;;;1999.90;999.90;;;6.70;99.90;;;;;;5087395;28;20483;-76
2023/04/19 03:57:30;;;;;;;1999.90;999.90;;;6.90;99.90;;;;;;5090621;28;20479;-76
2023/04/19 03:59:56;;;;;;;1999.90;999.90;;;6.90;99.90;;;;;;5075394;28;20963;-79
2023/04/19 04:02:23;;;;;;;1999.90;999.90;;;7.00;99.90;;;;;;5085608;28;20483;-77
2023/04/19 04:04:53;;;;;;;1999.90;999.90;;;7.20;99.90;;;;;;5087592;28;20427;-77
2023/04/19 04:07:22;;;;;;;1999.90;999.90;;;7.10;99.90;;;;;;5088221;28;20441;-77
2023/04/19 04:09:48;;;;;;;1999.90;999.90;;;7.00;99.90;;;;;;5088339;28;20473;-75
2023/04/19 04:12:15;;;;;;;1999.90;999.90;;;7.00;99.90;;;;;;5079847;28;20425;-78
2023/04/19 04:14:43;;;;;;;1999.90;999.90;;;6.80;99.90;;;;;;5086290;28;20423;-76
2023/04/19 04:17:10;;;;;;;1999.90;999.90;;;6.70;99.90;;;;;;5092152;28;20426;-78
2023/04/19 04:19:37;;;;;;;1999.90;999.90;;;6.80;99.90;;;;;;5087506;28;20434;-76
2023/04/19 04:22:04;;;;;;;1999.90;999.90;;;6.80;99.90;;;;;;5090283;28;20429;-74
2023/04/19 04:24:31;;;;;;;1999.90;999.90;;;6.80;99.90;;;;;;5091057;28;20803;-75
2023/04/19 04:26:59;;;;;;;1999.90;999.90;;;6.60;99.90;;;;;;5080301;28;20978;-76
2023/04/19 04:29:27;;;;;;;1999.90;999.90;;;6.50;99.90;;;;;;5084154;28;20430;-79
2023/04/19 04:31:56;;;;;;;1999.90;999.90;;;6.60;99.90;;;;;;5137731;22;20451;-77
2023/04/19 04:34:23;;;;;;;1999.90;999.90;;;6.60;99.90;;;;;;5071419;28;20430;-77
2023/04/19 04:36:50;;;;;;;1999.90;999.90;;;6.40;99.90;;;;;;5071767;28;20428;-78
2023/04/19 04:39:16;;;;;;;1999.90;999.90;;;6.60;99.90;;;;;;5072390;28;20983;-77
2023/04/19 04:41:43;;;;;;;1999.90;999.90;;;6.40;99.90;;;;;;5071904;28;20476;-75
2023/04/19 04:44:11;;;;;;;1999.90;999.90;;;6.60;99.90;;;;;;5066868;28;20442;-75
2023/04/19 04:46:37;;;;;;;1999.90;999.90;;;6.60;99.90;;;;;;5070773;28;20459;-76
2023/04/19 04:49:06;;;;;;;1999.90;999.90;;;6.50;99.90;;;;;;5072721;28;20446;-76
2023/04/19 04:51:33;;;;;;;1999.90;999.90;;;6.60;99.90;;;;;;5070533;28;20564;-75
2023/04/19 04:53:59;;;;;;;1999.90;999.90;;;6.50;99.90;;;;;;5070580;28;20429;-75
2023/04/19 04:56:29;;;;;;;1999.90;999.90;;;6.50;99.90;;;;;;5071581;28;20488;-75
2023/04/19 04:58:56;;;;;;;1999.90;999.90;;;6.50;99.90;;;;;;5077200;28;20423;-79
2023/04/19 05:01:23;;;;;;;1999.90;999.90;;;6.80;99.90;;;;;;5073728;28;20516;-76
2023/04/19 05:03:50;;;;;;;1999.90;999.90;;;6.60;99.90;;;;;;5073633;28;20454;-76
2023/04/19 05:06:18;;;;;;;1999.90;999.90;;;6.70;99.90;;;;;;5064412;28;20995;-75
2023/04/19 05:08:45;;;;;;;1999.90;999.90;;;6.60;99.90;;;;;;5072361;28;20809;-75
2023/04/19 05:11:12;;;;;;;1999.90;999.90;;;6.60;99.90;;;;;;5071977;28;20431;-74
2023/04/19 05:13:39;;;;;;;1999.90;999.90;;;6.70;99.90;;;;;;5072307;28;20427;-76
2023/04/19 05:16:06;;;;;;;1999.90;999.90;;;6.70;99.90;;;;;;5073673;28;20432;-78
2023/04/19 05:18:33;;;;;;;1999.90;999.90;;;6.70;99.90;;;;;;5079628;28;20439;-75
2023/04/19 05:20:59;;;;;;;1999.90;999.90;;;6.60;99.90;;;;;;5070120;28;20431;-74
2023/04/19 05:23:28;;;;;;;1999.90;999.90;;;6.90;99.90;;;;;;5068804;28;20844;-73
2023/04/19 05:25:54;;;;;;;1999.90;999.90;;;7.00;99.90;;;;;;5065986;28;20456;-76
2023/04/19 05:28:21;;;;;;;1999.90;999.90;;;7.10;99.90;;;;;;5069676;28;20860;-75
2023/04/19 05:30:48;;;;;;;1999.90;999.90;;;7.40;99.90;;;;;;5070321;28;20825;-79
2023/04/19 05:33:14;;;;;;;1999.90;999.90;;;7.00;99.90;;;;;;5066473;28;20519;-75
2023/04/19 05:35:41;;;;;;;1999.90;999.90;;;7.20;99.90;;;;;;5073153;28;20504;-73
2023/04/19 05:38:08;;;;;;;1999.90;999.90;;;7.20;99.90;;;;;;5070457;28;20423;-73
2023/04/19 05:40:36;;;;;;;1999.90;999.90;;;7.20;99.90;;;;;;5070883;28;20431;-73
2023/04/19 05:43:02;;;;;;;1999.90;999.90;;;7.30;99.90;;;;;;5067657;28;20832;-75
2023/04/19 05:45:29;;;;;;;1999.90;999.90;;;7.50;99.90;;;;;;5060822;28;20974;-76
2023/04/19 05:47:56;;;;;;;1999.90;999.90;;;7.50;99.90;;;;;;5068699;28;20457;-72
2023/04/19 05:50:22;;;;;;;1999.90;999.90;;;7.60;99.90;;;;;;5077355;28;20474;-75
2023/04/19 05:52:49;;;;;;;1999.90;999.90;;;7.80;99.90;;;;;;5068528;28;20428;-77
2023/04/19 05:55:16;;;;;;;1999.90;999.90;;;7.90;99.90;;;;;;5065244;28;20423;-72
2023/04/19 05:57:44;;;;;;;1999.90;999.90;;;7.90;99.90;;;;;;5068306;28;20957;-76
2023/04/19 06:00:12;;;;;;;1999.90;999.90;;;8.10;99.90;;;;;;5068282;28;20540;-76
2023/04/19 06:02:39;;;;;;;1999.90;999.90;;;8.10;99.90;;;;;;5068449;28;20441;-76
2023/04/19 06:05:06;;;;;;;1999.90;999.90;;;8.00;99.90;;;;;;5071345;28;20936;-77
2023/04/19 06:07:33;;;;;;;1999.90;999.90;;;7.90;99.90;;;;;;5070198;28;20578;-77
2023/04/19 06:10:00;;;;;;;1999.90;999.90;;;7.90;99.90;;;;;;5071927;28;20423;-74
2023/04/19 06:12:27;;;;;;;1999.90;999.90;;;8.20;99.90;;;;;;5078324;28;20530;-75
2023/04/19 06:14:55;;;;;;;1999.90;999.90;;;8.00;99.90;;;;;;5071851;28;20480;-76
2023/04/19 06:17:23;;;;;;;1999.90;999.90;;;8.00;99.90;;;;;;5070797;28;20431;-76
2023/04/19 06:19:50;;;;;;;1999.90;999.90;;;7.60;99.90;;;;;;5066642;28;20510;-77
2023/04/19 06:22:17;;;;;;;1999.90;999.90;;;7.80;99.90;;;;;;5070023;28;20453;-77
2023/04/19 06:24:44;;;;;;;1999.90;999.90;;;8.00;99.90;;;;;;5073555;28;20926;-78
2023/04/19 06:27:11;;;;;;;1999.90;999.90;;;8.00;99.90;;;;;;5062065;28;20512;-79
2023/04/19 06:29:38;;;;;;;1999.90;999.90;;;8.10;99.90;;;;;;5067561;28;20431;-76
2023/04/19 06:32:06;;;;;;;1999.90;999.90;;;8.40;99.90;;;;;;5068539;28;20431;-75
2023/04/19 06:34:33;;;;;;;1999.90;999.90;;;8.60;99.90;;;;;;5070138;28;20566;-75
2023/04/19 06:36:59;;;;;;;1999.90;999.90;;;8.70;99.90;;;;;;5069768;28;20451;-75
2023/04/19 06:39:27;;;;;;;1999.90;999.90;;;8.60;99.90;;;;;;5071207;28;20827;-74
2023/04/19 06:41:53;;;;;;;1999.90;999.90;;;8.80;99.90;;;;;;5071756;28;20427;-76
2023/04/19 06:44:20;;;;;;;1999.90;999.90;;;8.60;99.90;;;;;;5071171;28;20416;-75
2023/04/19 06:46:47;;;;;;;1999.90;999.90;;;8.50;99.90;;;;;;5068716;28;20481;-76
2023/04/19 06:49:15;;;;;;;1999.90;999.90;;;8.70;99.90;;;;;;5069688;28;20436;-75
2023/04/19 06:51:41;;;;;;;1999.90;999.90;;;8.90;99.90;;;;;;5070568;28;20432;-76
2023/04/19 06:54:08;;;;;;;1999.90;999.90;;;8.80;99.90;;;;;;5070888;28;20919;-73
2023/04/19 06:56:44;;;;;;;1999.90;999.90;;;9.00;99.90;;;;;;5071067;28;20411;-74
2023/04/19 06:59:11;;;;;;;1999.90;999.90;;;9.40;99.90;;;;;;5069759;28;20973;-74
2023/04/19 07:01:38;;;;;;;1999.90;999.90;;;9.50;99.90;;;;;;5072076;28;20493;-75
2023/04/19 07:04:05;;;;;;;1999.90;999.90;;;9.60;99.90;;;;;;5074878;28;20419;-75
2023/04/19 07:06:49;;;;;;;1999.90;999.90;;;10.00;99.90;;;;;;5074731;28;20427;-75
2023/04/19 07:09:16;;;;;;;1999.90;999.90;;;10.30;99.90;;;;;;5075849;28;20411;-75
2023/04/19 07:11:43;;;;;;;1999.90;999.90;;;9.90;99.90;;;;;;5074119;28;20501;-74
2023/04/19 07:14:10;;;;;;;1999.90;999.90;;;9.80;99.90;;;;;;5074770;28;20419;-77
2023/04/19 07:16:37;;;;;;;1999.90;999.90;;;9.90;99.90;;;;;;5075715;28;20781;-76
2023/04/19 07:19:03;;;;;;;1999.90;999.90;;;9.70;99.90;;;;;;5074525;28;20903;-76
2023/04/19 07:21:32;;;;;;;1999.90;999.90;;;9.70;99.90;;;;;;5074511;28;20922;-77
2023/04/19 07:24:00;;;;;;;1999.90;999.90;;;9.60;99.90;;;;;;5054276;28;20787;-74
2023/04/19 07:26:27;;;;;;;1999.90;999.90;;;9.80;99.90;;;;;;5054930;28;20429;-75
2023/04/19 07:28:53;;;;;;;1999.90;999.90;;;9.90;99.90;;;;;;5071813;28;20494;-76
2023/04/19 07:31:20;;;;;;;1999.90;999.90;;;9.80;99.90;;;;;;5074081;28;20419;-75
2023/04/19 07:33:47;;;;;;;1999.90;999.90;;;9.90;99.90;;;;;;5074428;28;20419;-76
2023/04/19 07:36:13;;;;;;;1999.90;999.90;;;10.10;99.90;;;;;;5073980;28;20865;-76
2023/04/19 07:38:40;;;;;;;1999.90;999.90;;;10.10;99.90;;;;;;5067298;28;20827;-75
2023/04/19 07:41:08;;;;;;;1999.90;999.90;;;10.00;99.90;;;;;;5055671;28;20949;-73
2023/04/19 07:43:35;;;;;;;1999.90;999.90;;;10.10;99.90;;;;;;5073800;28;20444;-75
2023/04/19 07:46:02;;;;;;;1999.90;999.90;;;10.40;99.90;;;;;;5073623;28;20469;-77
2023/04/19 07:48:28;;;;;;;1999.90;999.90;;;10.40;99.90;;;;;;5073100;28;20488;-76
2023/04/19 07:50:55;;;;;;;1999.90;999.90;;;10.50;99.90;;;;;;5073364;28;20461;-75
2023/04/19 07:53:22;;;;;;;1999.90;999.90;;;10.60;99.90;;;;;;5073827;28;20416;-73
2023/04/19 07:55:48;;;;;;;1999.90;999.90;;;10.80;99.90;;;;;;5074586;28;20424;-78
2023/04/19 07:58:16;;;;;;;1999.90;999.90;;;10.90;99.90;;;;;;5074547;28;20432;-76
2023/04/19 08:00:43;;;;;;;1999.90;999.90;;;10.90;99.90;;;;;;5074731;28;20412;-75
2023/04/19 08:03:10;;;;;;;1999.90;999.90;;;10.60;99.90;;;;;;5074584;28;20431;-75
2023/04/19 08:05:36;;;;;;;1999.90;999.90;;;10.40;99.90;;;;;;5074407;28;20824;-76
2023/04/19 08:08:03;;;;;;;1999.90;999.90;;;10.30;99.90;;;;;;5074592;28;20435;-79
2023/04/19 08:10:30;;;;;;;1999.90;999.90;;;10.10;99.90;;;;;;5073437;28;20442;-73
2023/04/19 08:12:57;;;;;;;1999.90;999.90;;;10.40;99.90;;;;;;5071961;28;21030;-72
2023/04/19 08:15:25;;;;;;;1999.90;999.90;;;10.90;99.90;;;;;;5074414;28;20839;-72
2023/04/19 08:17:52;;;;;;;1999.90;999.90;;;10.80;99.90;;;;;;5073395;28;20447;-79
2023/04/19 08:20:20;;;;;;;1999.90;999.90;;;10.80;99.90;;;;;;5073248;28;20440;-76
2023/04/19 08:22:47;;;;;;;1999.90;999.90;;;10.80;99.90;;;;;;5073383;28;20427;-77
2023/04/19 08:25:14;;;;;;;1999.90;999.90;;;11.00;99.90;;;;;;5073222;28;20472;-75
2023/04/19 08:27:41;;;;;;;1999.90;999.90;;;11.20;99.90;;;;;;5073812;28;20427;-76
2023/04/19 08:30:09;;;;;;;1999.90;999.90;;;11.20;99.40;;;;;;5074920;28;20415;-75
2023/04/19 08:32:37;;;;;;;1999.90;999.90;;;11.00;99.90;;;;;;5074000;28;20444;-76
2023/04/19 08:35:07;;;;;;;1999.90;999.90;;;10.80;99.90;;;;;;5075376;28;20540;-74
2023/04/19 08:37:33;;;;;;;1999.90;999.90;;;10.50;99.90;;;;;;5074770;28;20414;-75
2023/04/19 08:40:00;;;;;;;1999.90;999.90;;;10.50;99.90;;;;;;5075100;28;20404;-76
2023/04/19 08:42:27;;;;;;;1999.90;999.90;;;10.50;99.90;;;;;;5073276;28;20457;-76
2023/04/19 08:44:56;;;;;;;1999.90;999.90;;;10.70;99.90;;;;;;5072694;28;20477;-75
2023/04/19 08:47:28;;;;;;;1999.90;999.90;;;11.00;99.50;;;;;;5073487;28;20424;-73
2023/04/19 08:49:59;;;;;;;1999.90;999.90;;;11.00;98.90;;;;;;5074117;28;20411;-77
2023/04/19 08:52:27;;;;;;;1999.90;999.90;;;11.10;98.20;;;;;;5073728;28;20926;-73
2023/04/19 08:54:54;;;;;;;1999.90;999.90;;;11.00;99.40;;;;;;5073931;28;20419;-75
2023/04/19 08:57:21;;;;;;;1999.90;999.90;;;11.20;99.00;;;;;;5073871;28;20411;-75
2023/04/19 08:59:54;;;;;;;1999.90;999.90;;;11.10;98.90;;;;;;5073750;28;20427;-75
2023/04/19 09:02:21;;;;;;;1999.90;999.90;;;11.10;98.60;;;;;;5072935;28;20412;-74
2023/04/19 09:04:47;;;;;;;1999.90;999.90;;;11.40;97.70;;;;;;5071929;28;20975;-76
2023/04/19 09:07:24;;;;;;;1999.90;999.90;;;11.70;97.90;;;;;;5071097;28;20481;-76
2023/04/19 09:10:05;;;;;;;1999.90;999.90;;;12.00;96.80;;;;;;5073345;28;20435;-77
2023/04/19 09:12:33;;;;;;;1999.90;999.90;;;12.10;96.90;;;;;;5074142;28;20486;-74
2023/04/19 09:15:00;;;;;;;1999.90;999.90;;;12.10;96.40;;;;;;5070885;28;20545;-75
2023/04/19 09:17:27;;;;;;;1999.90;999.90;;;12.30;96.00;;;;;;5070121;28;20897;-74
2023/04/19 09:19:54;;;;;;;1999.90;999.90;;;12.40;96.90;;;;;;5071312;28;20431;-74
2023/04/19 09:22:20;;;;;;;1999.90;999.90;;;12.70;95.60;;;;;;5064618;28;21012;-74
2023/04/19 09:24:48;;;;;;;1999.90;999.90;;;12.50;95.20;;;;;;5071233;28;20435;-75
2023/04/19 09:27:18;;;;;;;1999.90;999.90;;;12.40;95.20;;;;;;5073180;28;20504;-74
2023/04/19 09:29:53;;;;;;;1999.90;999.90;;;12.40;96.30;;;;;;5068116;28;20440;-75
2023/04/19 09:32:19;;;;;;;1999.90;999.90;;;12.40;94.00;;;;;;5063756;28;20416;-75
2023/04/19 09:34:52;;;;;;;1999.90;999.90;;;12.50;94.20;;;;;;5072016;28;20469;-75
2023/04/19 09:37:19;;;;;;;1999.90;999.90;;;12.50;93.60;;;;;;5072018;28;20418;-74
2023/04/19 09:39:47;;;;;;;1999.90;999.90;;;12.50;95.40;;;;;;5071665;28;20423;-75
2023/04/19 09:42:14;;;;;;;1999.90;999.90;;;12.80;93.90;;;;;;5071348;28;20435;-75
2023/04/19 09:44:41;;;;;;;1999.90;999.90;;;12.90;94.30;;;;;;5071128;28;20508;-75
2023/04/19 09:47:23;;;;;;;1999.90;999.90;;;12.90;93.20;;;;;;5071499;28;20424;-74
2023/04/19 09:50:04;;;;;;;1999.90;999.90;;;12.90;92.80;;;;;;5071803;28;20836;-75
2023/04/19 09:52:32;;;;;;;1999.90;999.90;;;12.90;93.20;;;;;;5071580;28;20427;-74
2023/04/19 09:55:01;;;;;;;1999.90;999.90;;;13.00;92.40;;;;;;5071116;28;20538;-75
2023/04/19 09:57:27;;;;;;;1999.90;999.90;;;13.20;93.00;;;;;;5071660;28;20408;-75
2023/04/19 09:59:54;;;;;;;1999.90;999.90;;;13.30;92.20;;;;;;5071626;28;20445;-72
2023/04/19 10:02:24;;;;;;;1999.90;999.90;;;13.30;92.50;;;;;;5070605;28;21296;-73
2023/04/19 10:04:52;;;;;;;1999.90;999.90;;;13.40;92.60;;;;;;5070884;28;20435;-75
2023/04/19 10:07:18;;;;;;;1999.90;999.90;;;13.30;91.70;;;;;;5071358;28;20427;-74
2023/04/19 10:09:49;;;;;;;1999.90;999.90;;;13.00;91.50;;;;;;5071434;28;20840;-77
2023/04/19 10:12:17;;;;;;;1999.90;999.90;;;13.20;91.30;;;;;;5071509;28;20416;-76
2023/04/19 10:14:44;;;;;;;1999.90;999.90;;;12.80;91.30;;;;;;5070906;28;20469;-74
2023/04/19 10:17:11;;;;;;;1999.90;999.90;;;12.70;90.80;;;;;;5070306;28;20860;-77
2023/04/19 10:19:40;;;;;;;1999.90;999.90;;;12.60;90.90;;;;;;5070920;28;20436;-76
2023/04/19 10:22:07;;;;;;;1999.90;999.90;;;12.60;91.20;;;;;;5070809;28;20469;-75
2023/04/19 10:24:34;;;;;;;1999.90;999.90;;;12.60;92.70;;;;;;5070951;28;20443;-74
2023/04/19 10:27:11;;;;;;;1999.90;999.90;;;13.10;93.40;;;;;;5070879;28;20423;-75
2023/04/19 10:30:00;;;;;;;1999.90;999.90;;;13.40;91.70;;;;;;5070198;28;20477;-74
2023/04/19 10:32:28;;;;;;;1999.90;999.90;;;13.60;89.60;;;;;;5059436;22;20417;-76
2023/04/19 10:34:55;;;;;;;1999.90;999.90;;;13.60;90.00;;;;;;5071458;28;20431;-76
2023/04/19 10:37:23;;;;;;;1999.90;999.90;;;13.50;88.90;;;;;;5070884;28;20422;-75
2023/04/19 10:39:50;;;;;;;1999.90;999.90;;;13.60;90.60;;;;;;5078020;28;21023;-72
2023/04/19 10:42:17;;;;;;;1999.90;999.90;;;13.70;88.70;;;;;;5073989;28;20421;-75
2023/04/19 10:45:26;;;;;;;1999.90;999.90;;;13.60;86.30;;;;;;5080458;28;20434;-74
2023/04/19 10:47:54;;;;;;;1999.90;999.90;;;13.30;88.50;;;;;;5084668;28;20459;-75
2023/04/19 10:50:23;;;;;;;1999.90;999.90;;;13.10;89.50;;;;;;5091015;28;20471;-73
2023/04/19 10:52:50;;;;;;;1999.90;999.90;;;12.80;86.50;;;;;;5090985;28;20459;-75
2023/04/19 10:55:19;;;;;;;1999.90;999.90;;;12.90;87.80;;;;;;5078547;28;20488;-75
2023/04/19 10:58:02;;;;;;;1999.90;999.90;;;13.00;86.80;;;;;;5086318;28;20434;-75
2023/04/19 11:00:30;;;;;;;1999.90;999.90;;;13.40;86.30;;;;;;5090258;28;20409;-74
2023/04/19 11:02:59;;;;;;;1999.90;999.90;;;13.30;85.00;;;;;;5090288;28;20775;-74
2023/04/19 11:05:26;;;;;;;1999.90;999.90;;;13.30;87.40;;;;;;5073529;28;20436;-75
2023/04/19 11:07:52;;;;;;;1999.90;999.90;;;13.60;85.60;;;;;;5073202;28;20932;-75
2023/04/19 11:10:29;;;;;;;1999.90;999.90;;;13.80;87.30;;;;;;5069913;28;20890;-74
2023/04/19 11:12:56;;;;;;;1999.90;999.90;;;13.60;84.70;;;;;;5070028;28;20486;-74
2023/04/19 11:15:23;;;;;;;1999.90;999.90;;;13.20;83.10;;;;;;5077590;28;20437;-74
2023/04/19 11:17:51;;;;;;;1999.90;999.90;;;13.30;84.20;;;;;;5086379;28;20473;-74
2023/04/19 11:20:23;;;;;;;1999.90;999.90;;;13.00;81.80;;;;;;5090129;28;20410;-73
2023/04/19 11:22:50;;;;;;;1999.90;999.90;;;13.00;86.00;;;;;;5090339;28;20414;-74
2023/04/19 11:25:18;;;;;;;1999.90;999.90;;;13.40;85.80;;;;;;5079040;28;20477;-77
2023/04/19 11:27:47;;;;;;;1999.90;999.90;;;13.80;84.90;;;;;;5085650;28;21000;-74
2023/04/19 11:30:18;;;;;;;1999.90;999.90;;;14.10;83.10;;;;;;5090008;28;20497;-72
2023/04/19 11:32:47;;;;;;;1999.90;999.90;;;13.90;79.80;;;;;;5089779;28;20475;-74
2023/04/19 11:35:14;;;;;;;1999.90;999.90;;;13.50;81.70;;;;;;5076907;28;20928;-75
2023/04/19 11:37:42;;;;;;;1999.90;999.90;;;13.40;82.80;;;;;;5078079;28;20790;-75
2023/04/19 11:40:14;;;;;;;1999.90;999.90;;;13.80;79.70;;;;;;5069175;28;20785;-76
2023/04/19 11:42:40;;;;;;;1999.90;999.90;;;13.60;80.30;;;;;;5073013;28;20415;-75
2023/04/19 11:45:08;;;;;;;1999.90;999.90;;;13.70;83.70;;;;;;5088828;28;20414;-74
2023/04/19 11:47:35;;;;;;;1999.90;999.90;;;13.70;80.10;;;;;;5092918;28;20422;-74
2023/04/19 11:50:33;;;;;;;1999.90;999.90;;;13.50;78.00;;;;;;5093397;28;20410;-76
2023/04/19 11:53:13;;;;;;;1999.90;999.90;;;13.60;79.70;;;;;;5080274;28;20422;-75
2023/04/19 11:55:43;;;;;;;1999.90;999.90;;;13.80;80.90;;;;;;5093236;28;20831;-77
2023/04/19 11:58:24;;;;;;;1999.90;999.90;;;13.90;79.20;;;;;;5093485;28;20413;-75
2023/04/19 12:00:51;;;;;;;1999.90;999.90;;;13.90;79.60;;;;;;5082224;28;20431;-71
2023/04/19 12:03:21;;;;;;;1999.90;999.90;;;13.80;81.30;;;;;;5067108;28;20423;-75
2023/04/19 12:05:53;;;;;;;1999.90;999.90;;;14.10;81.80;;;;;;5066056;28;20427;-75
2023/04/19 12:08:30;;;;;;;1999.90;999.90;;;14.50;78.90;;;;;;5067691;28;20435;-74